Video: Airbus A320 de Air Astana sufre excursión temporal de pista Kazajistán

Tiempo de lectura: 2 minutos

Un Airbus A320-200 matrícula P4-KBB operado por la aerolínea Air Astana, excursionó y nuevamente se incorporó a la pista 22, durante el aterrizaje en el Aeropuerto Internacional de Astana, Kazajistán, procedente del Aeropuerto de Shymkent, cumpliendo el vuelo KC-352.

Según las primeras declaraciones del Departamento de Aviación Civil de Kazajstán, el incidente se registró a las 13:22 horas locales (07:22UTC), de este lunes 22 de mayo del 2018. La excursión de pista tuvo una duración aproximada de 25 segundos (entre 400 a 500 metros), momento en el que los pilotos trataban de reincorporar la aeronave a la pista. Durante la salida, cruzaron las calles de rodaje B y C.

El cowling del motor izquierdo (1), impactó con de las señalizaciones del borde de pista, lo que ocasionó daños considerables en su estructura. A bordo de la aeronave 88 pasajeros y 9 miembros de la tripulación quienes no resultaron heridos y fueron evacuados hasta la terminal.

Actualmente, la aerolínea se pronunció sobre los hechos, y afirmó que llevará a cabo una investigación. El accidente está asociado a la condición de vientos en la zona que superan los 50 nudos de intensidad.

UACC 220730Z 32017G25MPS 9999 -SHRA VCTS SCT013CB BKN070 15/12 Q1010 R22 / 2 / // 60 TEMPO VRB25MPS 2000 TSRA SQ BKN020CB RMK QFE726 / 0969 
UACC 220700Z 25009MPS 9999 SCT030CB BKN110 24/07 Q1008 R22 / 70 0 /// TEMPO VRB14MPS 3000 TSRA SQ BKN020CB RMK QFE725 / 0967 
UACC 220630Z 23009MPS 9999 FEW030CB SCT110 24/07 Q1009 R22 / 0 /// 70 NOSIG RMK QFE725 / 0967

  • author's avatar

    Por: Roberto Mtz Armendáriz

    Periodista independiente con más de 10 años de experiencia en los medios de comunicación. Ha participado en varios proyectos de casas radiodifusoras como titular de noticieros en FM (Grupo Radiorama) y ha sido Jefe de Información de varios periódicos mexicanos. También, posee Licencia de Oficial de Operaciones de Aeronaves.

    Ciudad de México.

  • author's avatar

Deja tu comentario.

También te podría gustar...